Time;durP1;ratioP1;P1;durP2;ratioP2;P2;SDS_P1;SDS_P2;PMS_P1;PMS_P2;Temp;Humidity;BMP_temperature;BMP_pressure;BME280_temperature;BME280_humidity;BME280_pressure;Samples;Min_cycle;Max_cycle;Signal;HPM_P1;HPM_P2
2023/08/17 00:01:50;;;;;;;2.35;1.50;;;20.80;91.90;;;;;;6131127;23;20009;-82
2023/08/17 00:04:16;;;;;;;1.83;1.35;;;20.90;91.90;;;;;;6158179;23;20029;-82
2023/08/17 00:06:42;;;;;;;2.10;1.40;;;20.80;91.90;;;;;;6157376;23;20072;-82
2023/08/17 00:09:09;;;;;;;2.33;1.30;;;20.90;91.90;;;;;;6130914;23;20008;-82
2023/08/17 00:11:35;;;;;;;2.70;1.52;;;20.90;91.90;;;;;;6157820;23;20372;-82
2023/08/17 00:14:00;;;;;;;2.15;1.50;;;20.90;91.90;;;;;;6130582;23;20063;-82
2023/08/17 00:16:26;;;;;;;2.00;1.38;;;20.90;91.90;;;;;;6130462;23;20433;-82
2023/08/17 00:18:52;;;;;;;2.70;1.35;;;20.90;91.90;;;;;;6130215;23;20333;-82
2023/08/17 00:21:17;;;;;;;2.80;1.33;;;20.80;91.90;;;;;;6130000;23;20048;-82
2023/08/17 00:23:43;;;;;;;2.53;1.40;;;20.80;91.90;;;;;;6155953;23;20001;-82
2023/08/17 00:26:09;;;;;;;3.13;1.50;;;20.80;92.00;;;;;;6157166;23;20459;-82
2023/08/17 00:28:35;;;;;;;2.03;1.35;;;20.80;92.00;;;;;;6130006;23;20143;-82
2023/08/17 00:31:01;;;;;;;3.47;1.40;;;20.80;92.10;;;;;;6129980;23;20027;-82
2023/08/17 00:33:27;;;;;;;2.88;1.40;;;20.80;92.20;;;;;;6129360;23;20009;-82
2023/08/17 00:35:52;;;;;;;2.53;1.50;;;20.70;92.20;;;;;;6129822;23;20037;-83
2023/08/17 00:38:18;;;;;;;2.45;1.50;;;20.70;92.20;;;;;;6129634;23;20013;-82
2023/08/17 00:40:43;;;;;;;2.53;1.60;;;20.70;92.20;;;;;;6129702;23;19997;-82
2023/08/17 00:43:09;;;;;;;2.33;1.50;;;20.70;92.20;;;;;;6129308;23;20010;-82
2023/08/17 00:45:35;;;;;;;3.25;1.40;;;20.70;92.20;;;;;;6129313;23;20033;-82
2023/08/17 00:48:01;;;;;;;2.05;1.30;;;20.70;92.20;;;;;;6129471;23;20005;-82
2023/08/17 00:50:27;;;;;;;2.22;1.20;;;20.70;92.20;;;;;;6129793;23;20010;-82
2023/08/17 00:52:53;;;;;;;2.00;1.30;;;20.70;92.20;;;;;;6129186;23;20014;-82
2023/08/17 00:55:19;;;;;;;2.20;1.30;;;20.70;92.20;;;;;;6136921;23;20029;-84
2023/08/17 00:57:45;;;;;;;1.73;1.35;;;20.70;92.20;;;;;;6172320;23;20005;-84
2023/08/17 01:00:13;;;;;;;1.95;1.30;;;20.70;92.20;;;;;;6144515;23;20077;-84
2023/08/17 01:02:40;;;;;;;2.03;1.20;;;20.70;92.20;;;;;;6143890;23;20369;-83
2023/08/17 01:05:06;;;;;;;1.95;1.40;;;20.70;92.20;;;;;;6170258;23;20006;-83
2023/08/17 01:07:32;;;;;;;2.58;1.40;;;20.70;92.10;;;;;;6143675;23;20009;-83
2023/08/17 01:09:59;;;;;;;2.30;1.50;;;20.70;92.20;;;;;;6143370;23;20008;-82
2023/08/17 01:12:36;;;;;;;2.15;1.45;;;20.60;92.20;;;;;;6142212;23;20009;-82
2023/08/17 01:15:08;;;;;;;2.53;1.48;;;20.60;92.10;;;;;;6142194;23;20456;-83
2023/08/17 01:17:52;;;;;;;2.72;1.50;;;20.60;92.10;;;;;;6146025;23;20029;-84
2023/08/17 01:20:20;;;;;;;3.80;1.50;;;20.70;92.20;;;;;;6144473;23;20006;-84
2023/08/17 01:22:49;;;;;;;1.98;1.27;;;20.70;92.20;;;;;;6169997;23;20032;-84
2023/08/17 01:25:15;;;;;;;2.88;1.40;;;20.70;92.20;;;;;;6143419;23;20381;-83
2023/08/17 01:27:43;;;;;;;2.95;1.40;;;20.60;92.10;;;;;;6143384;23;20013;-83
2023/08/17 01:30:14;;;;;;;2.47;1.30;;;20.60;92.10;;;;;;6169068;23;20024;-83
2023/08/17 01:33:06;;;;;;;2.65;1.50;;;20.70;92.10;;;;;;6168031;23;20513;-82
2023/08/17 01:35:40;;;;;;;1.75;1.40;;;20.70;92.10;;;;;;6141418;23;20005;-83
2023/08/17 01:38:11;;;;;;;2.53;1.33;;;20.70;92.10;;;;;;6140965;23;20005;-83
2023/08/17 01:40:37;;;;;;;;;;;20.80;92.10;;;;;;6141277;23;20006;-83
2023/08/17 01:43:03;;;;;;;1.83;1.30;;;20.80;92.00;;;;;;6166254;23;19912;-82
2023/08/17 01:45:28;;;;;;;4.13;1.45;;;20.80;92.00;;;;;;6139543;23;20055;-83
2023/08/17 01:47:55;;;;;;;2.25;1.30;;;20.80;92.00;;;;;;6166010;23;20032;-83
2023/08/17 01:50:21;;;;;;;1.88;1.40;;;20.80;92.00;;;;;;6138221;23;20008;-83
2023/08/17 01:52:46;;;;;;;2.60;1.50;;;20.80;91.90;;;;;;6165519;23;20332;-83
2023/08/17 01:55:12;;;;;;;3.40;1.65;;;20.80;92.00;;;;;;6165051;23;20002;-82
2023/08/17 01:57:37;;;;;;;2.40;1.35;;;20.80;91.90;;;;;;6165416;23;20440;-82
2023/08/17 02:00:10;;;;;;;3.22;1.45;;;20.80;91.90;;;;;;6139465;23;20005;-83
2023/08/17 02:02:36;;;;;;;2.33;1.40;;;20.80;91.90;;;;;;6139134;23;20486;-84
2023/08/17 02:05:01;;;;;;;2.35;1.55;;;20.80;91.90;;;;;;6138228;23;20002;-83
2023/08/17 02:07:28;;;;;;;2.05;1.30;;;20.80;91.90;;;;;;6138142;23;20005;-83
2023/08/17 02:09:53;;;;;;;2.60;1.40;;;20.80;91.90;;;;;;6137868;23;20002;-83
2023/08/17 02:12:19;;;;;;;2.45;1.40;;;20.80;92.00;;;;;;6138138;23;20013;-83
2023/08/17 02:14:44;;;;;;;2.20;1.40;;;20.80;92.00;;;;;;6161816;23;20068;-81
2023/08/17 02:17:10;;;;;;;2.83;1.50;;;20.70;92.00;;;;;;6135743;23;20056;-83
2023/08/17 02:19:35;;;;;;;2.92;1.50;;;20.70;92.10;;;;;;6136580;23;20013;-84
2023/08/17 02:22:01;;;;;;;2.58;1.50;;;20.70;92.20;;;;;;6136011;23;20408;-83
2023/08/17 02:24:27;;;;;;;2.10;1.40;;;20.70;92.20;;;;;;6163487;23;19997;-82
2023/08/17 02:26:53;;;;;;;2.08;1.20;;;20.70;92.20;;;;;;6136363;23;20120;-83
2023/08/17 02:29:18;;;;;;;2.00;1.42;;;20.70;92.30;;;;;;6134825;23;20025;-83
2023/08/17 02:31:44;;;;;;;2.30;1.40;;;20.60;92.20;;;;;;6162546;23;20024;-82
2023/08/17 02:34:10;;;;;;;2.53;1.50;;;20.70;92.20;;;;;;6135013;23;20337;-82
2023/08/17 02:36:35;;;;;;;1.80;1.20;;;20.70;92.20;;;;;;6135690;23;20452;-83
2023/08/17 02:39:01;;;;;;;3.45;1.70;;;20.70;92.20;;;;;;6161993;23;20007;-83
2023/08/17 02:41:26;;;;;;;2.00;1.30;;;20.70;92.20;;;;;;6161013;23;20455;-83
2023/08/17 02:43:52;;;;;;;1.70;1.20;;;20.60;92.20;;;;;;6134316;23;20005;-82
2023/08/17 02:46:17;;;;;;;2.42;1.48;;;20.60;92.20;;;;;;6134254;23;20009;-82
2023/08/17 02:48:43;;;;;;;1.98;1.40;;;20.60;92.20;;;;;;6134841;23;20428;-82
2023/08/17 02:51:08;;;;;;;2.55;1.40;;;20.60;92.20;;;;;;6133215;23;20013;-83
2023/08/17 02:53:34;;;;;;;2.17;1.33;;;20.60;92.20;;;;;;6132776;23;20009;-83
2023/08/17 02:55:59;;;;;;;3.03;1.50;;;20.60;92.20;;;;;;6134472;23;19997;-82
2023/08/17 02:58:25;;;;;;;3.22;1.50;;;20.60;92.20;;;;;;6133679;23;20006;-82
2023/08/17 03:00:53;;;;;;;2.10;1.30;;;20.60;92.20;;;;;;6160132;23;20001;-82
2023/08/17 03:03:19;;;;;;;3.03;1.30;;;20.60;92.20;;;;;;6132021;23;20086;-82
2023/08/17 03:05:45;;;;;;;2.55;1.40;;;20.60;92.20;;;;;;6132304;23;20373;-83
2023/08/17 03:08:10;;;;;;;1.92;1.33;;;20.60;92.20;;;;;;6157748;23;20041;-82
2023/08/17 03:10:37;;;;;;;2.03;1.38;;;20.60;92.20;;;;;;6159176;23;20002;-82
2023/08/17 03:13:03;;;;;;;2.83;1.50;;;20.60;92.20;;;;;;6132105;23;20009;-82
2023/08/17 03:15:28;;;;;;;2.58;1.40;;;20.60;92.20;;;;;;6132539;23;20535;-82
2023/08/17 03:17:54;;;;;;;1.75;1.38;;;20.60;92.20;;;;;;6131545;23;20008;-82
2023/08/17 03:20:19;;;;;;;2.35;1.20;;;20.60;92.10;;;;;;6158373;23;20092;-82
2023/08/17 03:22:45;;;;;;;3.22;1.55;;;20.60;92.10;;;;;;6131414;23;20016;-83
2023/08/17 03:25:10;;;;;;;1.98;1.30;;;20.70;92.10;;;;;;6157470;23;20509;-82
2023/08/17 03:27:36;;;;;;;2.42;1.30;;;20.70;92.10;;;;;;6131010;23;20005;-82
2023/08/17 03:30:03;;;;;;;1.65;1.20;;;20.80;92.10;;;;;;6131411;23;20088;-82
2023/08/17 03:32:29;;;;;;;2.72;1.50;;;20.70;92.00;;;;;;6130935;23;20084;-82
2023/08/17 03:34:54;;;;;;;2.15;1.40;;;20.80;92.00;;;;;;6131023;23;20500;-83
2023/08/17 03:37:20;;;;;;;3.05;1.38;;;20.70;92.00;;;;;;6131238;23;20080;-82
2023/08/17 03:39:45;;;;;;;2.03;1.40;;;20.80;92.00;;;;;;6131096;23;20027;-82
2023/08/17 03:42:11;;;;;;;2.00;1.25;;;20.80;92.00;;;;;;6130737;23;20010;-83
2023/08/17 03:44:36;;;;;;;3.05;1.30;;;20.80;92.00;;;;;;6130884;23;19998;-82
2023/08/17 03:47:02;;;;;;;2.15;1.30;;;20.80;91.90;;;;;;6131113;23;20024;-82
2023/08/17 03:49:28;;;;;;;2.45;1.35;;;20.80;92.00;;;;;;6157207;23;20001;-82
2023/08/17 03:51:53;;;;;;;2.92;1.50;;;20.80;92.00;;;;;;6130934;23;20087;-82
2023/08/17 03:54:19;;;;;;;2.97;1.40;;;20.80;92.00;;;;;;6129964;23;20017;-82
2023/08/17 03:56:44;;;;;;;2.65;1.33;;;20.80;92.00;;;;;;6130611;23;20060;-82
2023/08/17 03:59:10;;;;;;;2.63;1.33;;;20.80;92.20;;;;;;6130863;23;20093;-82
2023/08/17 04:01:35;;;;;;;3.42;1.60;;;20.70;92.10;;;;;;6130514;23;20041;-82
2023/08/17 04:04:02;;;;;;;2.78;1.30;;;20.70;92.10;;;;;;6130165;23;20010;-82
2023/08/17 04:06:27;;;;;;;2.33;1.33;;;20.70;92.10;;;;;;6130384;23;20002;-82
2023/08/17 04:08:53;;;;;;;3.67;1.38;;;20.70;92.10;;;;;;6168222;23;20321;-84
2023/08/17 04:11:18;;;;;;;2.75;1.30;;;20.70;92.30;;;;;;6145140;23;20009;-84
2023/08/17 04:13:44;;;;;;;2.88;1.40;;;20.60;92.20;;;;;;6144264;23;20322;-84
2023/08/17 04:16:09;;;;;;;2.38;1.35;;;20.60;92.30;;;;;;6143144;23;20007;-84
2023/08/17 04:18:35;;;;;;;2.13;1.30;;;20.60;92.30;;;;;;6143719;23;20005;-83
2023/08/17 04:21:00;;;;;;;2.58;1.40;;;20.60;92.20;;;;;;6168943;23;20441;-83
2023/08/17 04:23:26;;;;;;;2.53;1.20;;;20.60;92.30;;;;;;6142914;23;20013;-81
2023/08/17 04:25:54;;;;;;;2.92;1.55;;;20.60;92.50;;;;;;6142228;23;20321;-84
2023/08/17 04:28:20;;;;;;;2.42;1.25;;;20.60;92.30;;;;;;6143177;23;20061;-84
2023/08/17 04:30:46;;;;;;;2.53;1.13;;;20.60;92.20;;;;;;6145704;23;20033;-84
2023/08/17 04:33:12;;;;;;;2.78;1.30;;;20.60;92.20;;;;;;6144211;23;20092;-83
2023/08/17 04:35:38;;;;;;;2.38;1.30;;;20.60;92.20;;;;;;6169759;23;20001;-83
2023/08/17 04:38:04;;;;;;;2.55;1.45;;;20.60;92.20;;;;;;6169871;23;20012;-83
2023/08/17 04:40:30;;;;;;;2.63;1.38;;;20.60;92.20;;;;;;6143068;23;20005;-83
2023/08/17 04:42:56;;;;;;;2.50;1.35;;;20.60;92.20;;;;;;6142708;23;20238;-83
2023/08/17 04:45:21;;;;;;;3.20;1.60;;;20.60;92.20;;;;;;6142339;23;20009;-84
2023/08/17 04:47:47;;;;;;;3.17;1.50;;;20.60;92.20;;;;;;6135803;23;20140;-83
2023/08/17 04:50:16;;;;;;;2.40;1.38;;;20.60;92.20;;;;;;6134159;23;20030;-83
2023/08/17 04:52:44;;;;;;;2.28;1.30;;;20.60;92.20;;;;;;6132564;23;20086;-83
2023/08/17 04:55:10;;;;;;;4.15;1.58;;;20.60;92.20;;;;;;6158486;23;20010;-82
2023/08/17 04:57:36;;;;;;;2.75;1.50;;;20.60;92.20;;;;;;6161544;23;20013;-82
2023/08/17 05:00:02;;;;;;;2.83;1.40;;;20.60;92.20;;;;;;6132305;23;20016;-81
2023/08/17 05:02:28;;;;;;;2.78;1.33;;;20.60;92.20;;;;;;6131870;23;20010;-81
2023/08/17 05:04:53;;;;;;;2.95;1.42;;;20.60;92.40;;;;;;6131433;23;20013;-81
2023/08/17 05:07:21;;;;;;;2.17;1.27;;;20.60;92.20;;;;;;6130321;23;20006;-82
2023/08/17 05:09:47;;;;;;;2.95;1.40;;;20.60;92.10;;;;;;6129911;23;20032;-84
2023/08/17 05:12:13;;;;;;;1.73;1.20;;;20.60;92.10;;;;;;6154481;23;20013;-82
2023/08/17 05:14:39;;;;;;;2.25;1.35;;;20.60;92.10;;;;;;6128392;23;20448;-80
2023/08/17 05:17:04;;;;;;;4.18;1.48;;;20.70;92.10;;;;;;6128405;23;20009;-83
2023/08/17 05:19:30;;;;;;;5.68;1.60;;;20.70;92.00;;;;;;6130903;23;20060;-84
2023/08/17 05:21:58;;;;;;;7.32;1.80;;;20.80;92.00;;;;;;6153908;23;20380;-85
2023/08/17 05:39:26;;;;;;;11.00;2.25;;;20.70;91.80;;;;;;6037188;23;20684;-85
2023/08/17 05:45:23;;;;;;;8.15;2.05;;;20.80;91.80;;;;;;6038973;23;20063;-84
2023/08/17 05:47:49;;;;;;;6.45;1.80;;;20.80;91.90;;;;;;6051098;23;20004;-85
2023/08/17 05:50:14;;;;;;;6.55;2.03;;;21.50;92.10;;;;;;6127073;23;20009;-85
2023/08/17 05:52:41;;;;;;;5.25;1.98;;;20.70;91.80;;;;;;6167538;23;20012;-85
2023/08/17 05:55:07;;;;;;;5.75;1.85;;;20.90;91.90;;;;;;6167979;23;20010;-84
2023/08/17 05:57:33;;;;;;;8.00;2.22;;;20.70;91.90;;;;;;6167739;23;20013;-85
2023/08/17 05:59:58;;;;;;;8.63;1.70;;;20.70;92.00;;;;;;6167892;23;20013;-85
2023/08/17 06:02:24;;;;;;;7.25;2.15;;;21.10;92.10;;;;;;6167977;23;20093;-84
2023/08/17 06:04:49;;;;;;;6.68;2.15;;;20.70;92.00;;;;;;6167209;23;20001;-84
2023/08/17 06:07:15;;;;;;;5.65;1.95;;;20.60;91.90;;;;;;6167840;23;20326;-84
2023/08/17 06:09:40;;;;;;;6.00;1.95;;;21.40;92.20;;;;;;6168069;23;20314;-84
2023/08/17 06:12:06;;;;;;;5.60;1.80;;;20.70;92.00;;;;;;6167793;23;20025;-84
2023/08/17 06:14:34;;;;;;;7.40;1.80;;;20.60;92.00;;;;;;6168410;23;20001;-85
2023/08/17 06:17:00;;;;;;;5.60;1.80;;;20.60;92.00;;;;;;6168384;23;20106;-84
2023/08/17 06:19:25;;;;;;;6.30;1.70;;;20.60;92.00;;;;;;6168518;23;20005;-85
2023/08/17 06:21:51;;;;;;;5.57;2.28;;;20.80;92.00;;;;;;6169048;23;20053;-84
2023/08/17 06:24:17;;;;;;;5.75;1.75;;;20.70;92.00;;;;;;6167412;23;20012;-85
2023/08/17 06:26:44;;;;;;;4.65;1.50;;;20.80;92.10;;;;;;6169652;23;20002;-85
2023/08/17 06:29:09;;;;;;;6.15;2.05;;;20.80;92.00;;;;;;6168749;23;20024;-85
2023/08/17 06:31:35;;;;;;;7.15;1.90;;;20.60;92.00;;;;;;6167854;23;20014;-85
2023/08/17 06:34:00;;;;;;;5.35;1.77;;;20.60;92.00;;;;;;6167844;23;20005;-84
2023/08/17 06:36:30;;;;;;;6.70;1.67;;;20.60;92.00;;;;;;6168559;23;20203;-84
2023/08/17 06:38:56;;;;;;;5.25;1.60;;;21.00;92.10;;;;;;6168322;23;20020;-85
2023/08/17 06:41:21;;;;;;;4.25;1.55;;;20.80;92.00;;;;;;6168637;23;20009;-85
2023/08/17 06:43:47;;;;;;;5.60;1.65;;;20.60;92.00;;;;;;6168790;23;20021;-84
2023/08/17 06:46:12;;;;;;;3.60;1.50;;;20.60;92.00;;;;;;6170393;23;20081;-84
2023/08/17 06:48:38;;;;;;;7.40;1.90;;;20.60;92.00;;;;;;6169536;23;20002;-84
2023/08/17 06:51:04;;;;;;;6.13;2.08;;;20.70;92.00;;;;;;6169733;23;20009;-84
2023/08/17 06:53:30;;;;;;;5.13;1.90;;;20.60;91.90;;;;;;6169850;23;20005;-86
2023/08/17 06:55:55;;;;;;;3.70;1.60;;;20.60;91.90;;;;;;6169649;23;20066;-84
2023/08/17 06:58:21;;;;;;;4.00;1.80;;;20.80;91.90;;;;;;6169068;23;20006;-85
2023/08/17 07:00:46;;;;;;;5.32;1.70;;;20.70;91.90;;;;;;6169552;23;20016;-84
2023/08/17 07:03:12;;;;;;;3.83;1.60;;;21.00;91.90;;;;;;6168085;23;20016;-84
2023/08/17 07:05:37;;;;;;;4.75;1.70;;;20.70;91.80;;;;;;6168144;23;20009;-84
2023/08/17 07:08:03;;;;;;;5.28;1.80;;;20.70;91.80;;;;;;6168886;23;19998;-84
2023/08/17 07:10:29;;;;;;;4.40;1.60;;;20.80;91.80;;;;;;6169062;23;20648;-85
2023/08/17 07:12:54;;;;;;;4.82;1.67;;;20.80;91.70;;;;;;6169697;23;20006;-85
2023/08/17 07:15:20;;;;;;;4.82;1.63;;;21.10;91.80;;;;;;6169384;23;20006;-86
2023/08/17 07:17:45;;;;;;;3.88;1.80;;;20.70;91.70;;;;;;6166995;23;20452;-86
2023/08/17 07:20:11;;;;;;;3.53;1.50;;;21.40;91.80;;;;;;6165493;23;20006;-86
2023/08/17 07:22:37;;;;;;;3.67;1.77;;;20.80;91.70;;;;;;6164665;23;20048;-86
2023/08/17 07:25:03;;;;;;;2.85;1.40;;;20.60;91.50;;;;;;6165417;23;20001;-85
2023/08/17 07:27:29;;;;;;;3.03;1.60;;;20.80;91.70;;;;;;6166000;23;20001;-85
2023/08/17 07:29:54;;;;;;;4.05;1.60;;;20.80;91.70;;;;;;6165815;23;20008;-85
2023/08/17 07:32:21;;;;;;;3.28;1.60;;;20.80;91.70;;;;;;6166270;23;20017;-86
2023/08/17 07:34:46;;;;;;;3.75;1.60;;;20.80;91.70;;;;;;6165893;23;20352;-85
2023/08/17 07:37:12;;;;;;;4.00;1.70;;;20.90;91.70;;;;;;6165200;23;20093;-86
2023/08/17 07:39:38;;;;;;;5.93;1.70;;;20.70;91.70;;;;;;6165144;23;20002;-86
2023/08/17 07:42:03;;;;;;;2.95;1.52;;;20.70;91.80;;;;;;6163921;23;20010;-86
2023/08/17 07:44:31;;;;;;;2.90;1.40;;;20.70;91.90;;;;;;6165452;23;20044;-85
2023/08/17 07:46:57;;;;;;;3.22;1.75;;;20.70;91.90;;;;;;6165350;23;20001;-85
2023/08/17 07:49:24;;;;;;;4.05;1.70;;;20.70;91.90;;;;;;6165463;23;20080;-85
2023/08/17 07:51:49;;;;;;;4.60;1.70;;;21.20;92.00;;;;;;6164963;23;20005;-85
2023/08/17 07:54:15;;;;;;;3.35;1.70;;;21.40;92.10;;;;;;6164601;23;20063;-85
2023/08/17 07:56:40;;;;;;;5.10;1.90;;;20.80;92.00;;;;;;6165991;23;20009;-85
2023/08/17 07:59:06;;;;;;;5.22;1.80;;;20.60;91.90;;;;;;6165707;23;20016;-85
2023/08/17 08:01:31;;;;;;;3.35;1.70;;;20.60;91.90;;;;;;6165282;23;20009;-84
2023/08/17 08:03:57;;;;;;;6.00;1.92;;;20.70;92.00;;;;;;6164656;23;20078;-84
2023/08/17 08:06:23;;;;;;;3.92;1.48;;;20.50;91.90;;;;;;6165150;23;20005;-85
2023/08/17 08:08:48;;;;;;;3.15;1.45;;;20.60;91.90;;;;;;6165318;23;20463;-85
2023/08/17 08:11:14;;;;;;;5.28;2.08;;;20.70;92.00;;;;;;6165607;23;20009;-85
2023/08/17 08:13:40;;;;;;;3.10;1.63;;;20.60;91.90;;;;;;6164809;23;20444;-85
2023/08/17 08:16:06;;;;;;;4.20;1.58;;;20.60;91.90;;;;;;6165523;23;20025;-85
2023/08/17 08:18:31;;;;;;;2.70;1.65;;;21.10;92.10;;;;;;6165457;23;20033;-85
2023/08/17 08:20:57;;;;;;;3.63;1.80;;;20.60;91.90;;;;;;6166228;23;20001;-84
2023/08/17 08:23:22;;;;;;;3.58;1.65;;;20.60;91.90;;;;;;6165371;23;20012;-84
2023/08/17 08:25:48;;;;;;;2.38;1.50;;;20.60;91.90;;;;;;6165506;23;20002;-84
2023/08/17 08:28:13;;;;;;;3.95;1.80;;;20.60;91.90;;;;;;6165401;23;20076;-85
2023/08/17 08:30:39;;;;;;;3.47;1.70;;;20.60;92.10;;;;;;6165975;23;20016;-83
2023/08/17 08:33:04;;;;;;;4.57;1.60;;;20.60;91.90;;;;;;6165106;23;20028;-85
2023/08/17 08:35:30;;;;;;;4.18;1.52;;;20.60;91.90;;;;;;6165074;23;20001;-84
2023/08/17 08:37:56;;;;;;;3.65;1.95;;;20.60;91.90;;;;;;6164763;23;20496;-85
2023/08/17 08:40:30;;;;;;;4.47;1.55;;;20.70;91.90;;;;;;6166662;23;20006;-85
2023/08/17 08:42:57;;;;;;;3.83;1.75;;;20.70;91.90;;;;;;6165760;23;20009;-86
2023/08/17 08:45:23;;;;;;;3.35;1.58;;;20.70;91.80;;;;;;6166141;23;20002;-85
2023/08/17 08:47:49;;;;;;;3.03;1.60;;;21.50;91.90;;;;;;6166187;23;20012;-86
2023/08/17 08:50:18;;;;;;;3.53;1.77;;;20.70;91.70;;;;;;6166258;23;20002;-84
2023/08/17 08:53:09;;;;;;;3.22;1.80;;;20.80;91.60;;;;;;6165318;23;20458;-84
2023/08/17 08:55:38;;;;;;;3.40;1.65;;;20.70;91.60;;;;;;6166806;23;20328;-85
2023/08/17 08:58:07;;;;;;;3.67;1.80;;;20.80;91.60;;;;;;6167259;23;20016;-85
2023/08/17 09:00:34;;;;;;;4.05;1.80;;;20.70;91.50;;;;;;6165375;23;20006;-85
2023/08/17 09:03:04;;;;;;;2.67;1.60;;;20.80;91.50;;;;;;6165973;23;20009;-84
2023/08/17 09:05:31;;;;;;;4.00;1.83;;;20.80;91.50;;;;;;6165440;23;20008;-84
2023/08/17 09:07:59;;;;;;;3.35;1.70;;;20.80;91.50;;;;;;6166193;23;20005;-85
2023/08/17 09:10:24;;;;;;;2.78;1.80;;;20.80;91.60;;;;;;6165795;23;20013;-84
2023/08/17 09:12:50;;;;;;;4.07;1.95;;;20.80;91.60;;;;;;6164980;23;20005;-85
2023/08/17 09:15:16;;;;;;;3.00;1.60;;;20.90;91.70;;;;;;6166345;23;20005;-84
2023/08/17 09:17:42;;;;;;;3.50;1.60;;;20.80;91.70;;;;;;6166128;23;20006;-84
2023/08/17 09:20:09;;;;;;;2.88;1.63;;;20.70;91.70;;;;;;6167667;23;20005;-84
2023/08/17 09:22:40;;;;;;;3.95;1.65;;;20.70;91.70;;;;;;6166389;23;20010;-85
2023/08/17 09:25:06;;;;;;;2.75;1.60;;;20.70;91.80;;;;;;6165104;23;20005;-84
2023/08/17 09:27:32;;;;;;;3.70;1.73;;;20.70;91.80;;;;;;6166322;23;20005;-84
2023/08/17 09:30:06;;;;;;;4.22;2.03;;;20.70;91.80;;;;;;6167558;23;20002;-85
2023/08/17 09:32:32;;;;;;;2.90;1.77;;;20.70;91.80;;;;;;6166247;23;20036;-85
2023/08/17 09:35:01;;;;;;;3.20;1.70;;;20.90;91.90;;;;;;6165270;23;20005;-84
2023/08/17 09:37:27;;;;;;;3.25;2.10;;;20.70;91.90;;;;;;6166183;23;20016;-84
2023/08/17 09:39:54;;;;;;;3.83;1.98;;;20.70;91.90;;;;;;6166450;23;20005;-84
2023/08/17 09:42:22;;;;;;;3.83;1.88;;;20.60;91.80;;;;;;6167283;23;20041;-85
2023/08/17 09:44:50;;;;;;;5.32;1.85;;;20.70;91.90;;;;;;6167214;23;20005;-84
2023/08/17 09:47:17;;;;;;;4.00;1.70;;;20.60;91.90;;;;;;6167144;23;20037;-84
2023/08/17 09:49:57;;;;;;;3.10;1.90;;;20.70;91.90;;;;;;6166216;23;20008;-84
2023/08/17 09:52:25;;;;;;;3.00;1.58;;;20.80;91.90;;;;;;6166014;23;20089;-84
2023/08/17 09:54:52;;;;;;;2.65;1.75;;;20.70;91.90;;;;;;6166936;23;20006;-84
2023/08/17 09:57:17;;;;;;;4.30;1.85;;;20.80;91.90;;;;;;6165682;23;20372;-84
2023/08/17 09:59:43;;;;;;;3.35;1.80;;;20.70;91.90;;;;;;6165514;23;20006;-84
2023/08/17 10:02:19;;;;;;;3.15;1.65;;;20.70;91.90;;;;;;6165957;23;20010;-84
2023/08/17 10:04:52;;;;;;;4.10;1.90;;;20.70;91.90;;;;;;6165157;23;20384;-84
2023/08/17 10:07:25;;;;;;;4.10;1.80;;;20.60;91.90;;;;;;6165747;23;20005;-84
2023/08/17 10:10:01;;;;;;;3.53;1.70;;;20.70;91.90;;;;;;6167463;23;19998;-84
2023/08/17 10:12:31;;;;;;;3.33;2.10;;;20.70;91.90;;;;;;6165056;23;20008;-85
2023/08/17 10:15:03;;;;;;;3.65;1.90;;;20.70;91.90;;;;;;6165354;23;20033;-84
2023/08/17 10:17:36;;;;;;;3.47;2.00;;;20.70;91.80;;;;;;6165187;23;20013;-85
2023/08/17 10:20:02;;;;;;;3.22;2.00;;;20.70;91.80;;;;;;6168100;23;20028;-84
2023/08/17 10:22:38;;;;;;;3.10;1.88;;;20.70;91.70;;;;;;6167133;23;20005;-84
2023/08/17 10:25:05;;;;;;;3.53;1.67;;;20.70;91.70;;;;;;6167189;23;20008;-84
2023/08/17 10:27:32;;;;;;;2.67;1.70;;;20.70;91.70;;;;;;6167336;23;20021;-86
2023/08/17 10:29:58;;;;;;;4.18;2.00;;;20.80;91.70;;;;;;6165730;23;20001;-86
2023/08/17 10:32:25;;;;;;;2.65;1.63;;;20.80;91.60;;;;;;6164922;23;20092;-86
2023/08/17 10:34:51;;;;;;;3.88;1.90;;;21.40;91.80;;;;;;6165424;23;20012;-85
2023/08/17 10:37:19;;;;;;;3.70;1.90;;;20.80;91.60;;;;;;6165081;23;20013;-86
2023/08/17 10:39:48;;;;;;;3.03;2.03;;;21.50;91.80;;;;;;6165411;23;20035;-85
2023/08/17 10:42:14;;;;;;;3.33;1.90;;;21.40;91.70;;;;;;6164410;23;20005;-85
2023/08/17 10:44:46;;;;;;;2.95;1.70;;;20.60;91.50;;;;;;6165667;23;20056;-85
2023/08/17 10:47:24;;;;;;;3.63;1.98;;;20.80;91.60;;;;;;6165393;23;20005;-86
2023/08/17 10:49:52;;;;;;;3.50;1.90;;;20.80;91.60;;;;;;6165314;23;20002;-86
2023/08/17 10:52:31;;;;;;;3.10;1.70;;;20.70;91.60;;;;;;6164614;23;20024;-86
2023/08/17 10:55:00;;;;;;;3.40;1.70;;;20.70;91.70;;;;;;6164713;23;20010;-85
2023/08/17 10:57:29;;;;;;;3.28;1.70;;;20.60;91.70;;;;;;6165574;23;20006;-85
2023/08/17 11:00:10;;;;;;;3.55;2.00;;;20.70;91.80;;;;;;6164959;23;20005;-85
2023/08/17 11:02:37;;;;;;;3.28;1.80;;;20.70;91.80;;;;;;6164599;23;20005;-85
2023/08/17 11:05:04;;;;;;;2.67;1.73;;;20.70;91.90;;;;;;6164998;23;20001;-84
2023/08/17 11:07:42;;;;;;;3.55;1.92;;;20.60;91.90;;;;;;6165304;23;20336;-85
2023/08/17 11:10:20;;;;;;;3.30;1.90;;;20.70;91.90;;;;;;6167259;23;20001;-85
2023/08/17 11:12:46;;;;;;;2.63;1.70;;;20.60;91.90;;;;;;6166182;23;20440;-84
2023/08/17 11:15:11;;;;;;;4.53;2.10;;;20.60;91.90;;;;;;6164816;23;20060;-84
2023/08/17 11:17:37;;;;;;;3.30;1.80;;;20.50;91.90;;;;;;6165656;23;20010;-85
2023/08/17 11:20:04;;;;;;;4.43;2.17;;;20.60;91.90;;;;;;6165509;23;20006;-84
2023/08/17 11:22:30;;;;;;;4.05;2.08;;;20.60;91.90;;;;;;6166414;23;20037;-85
2023/08/17 11:24:55;;;;;;;3.08;2.00;;;20.70;92.00;;;;;;6166041;23;20008;-84
2023/08/17 11:27:21;;;;;;;3.08;1.95;;;20.70;92.00;;;;;;6165682;23;20001;-85
2023/08/17 11:29:47;;;;;;;4.10;2.13;;;20.60;92.20;;;;;;6166077;23;20021;-85
2023/08/17 11:32:16;;;;;;;4.20;2.20;;;20.70;92.00;;;;;;6165544;23;20014;-84
2023/08/17 11:34:42;;;;;;;2.70;1.90;;;20.60;92.00;;;;;;6166536;23;20021;-84
2023/08/17 11:37:07;;;;;;;3.63;2.25;;;20.60;92.00;;;;;;6165896;23;20016;-84
2023/08/17 11:39:36;;;;;;;3.70;2.10;;;20.60;91.90;;;;;;6166161;23;20005;-84
2023/08/17 11:42:01;;;;;;;3.53;2.00;;;20.60;91.90;;;;;;6166092;23;20009;-86
2023/08/17 11:44:27;;;;;;;3.80;1.98;;;20.60;92.00;;;;;;6165389;23;20005;-84
2023/08/17 11:46:53;;;;;;;3.60;2.10;;;20.70;92.00;;;;;;6166865;23;19998;-85
2023/08/17 11:49:19;;;;;;;4.70;2.10;;;20.70;92.00;;;;;;6165596;23;20037;-85
2023/08/17 11:51:44;;;;;;;4.03;2.17;;;20.60;91.90;;;;;;6166757;23;20016;-85
2023/08/17 11:54:10;;;;;;;3.75;2.08;;;20.60;91.90;;;;;;6165593;23;20064;-85
2023/08/17 11:56:37;;;;;;;4.22;2.15;;;21.40;92.10;;;;;;6165395;23;20008;-84
2023/08/17 11:59:19;;;;;;;3.30;2.03;;;20.70;91.90;;;;;;6165537;23;20005;-86
2023/08/17 12:01:45;;;;;;;4.28;2.05;;;20.80;91.90;;;;;;6165716;23;20028;-84
2023/08/17 12:04:11;;;;;;;4.20;2.40;;;20.70;91.80;;;;;;6165228;23;20001;-84
2023/08/17 12:06:44;;;;;;;3.95;2.03;;;20.70;91.80;;;;;;6166836;23;20053;-84
2023/08/17 12:09:09;;;;;;;2.88;1.92;;;20.60;91.70;;;;;;6166595;23;20002;-84
2023/08/17 12:11:35;;;;;;;3.55;2.10;;;20.70;91.70;;;;;;6165528;23;20001;-84
2023/08/17 12:14:11;;;;;;;2.55;1.88;;;20.80;91.70;;;;;;6165393;23;20444;-84
2023/08/17 12:16:48;;;;;;;3.42;2.00;;;20.80;91.70;;;;;;6165482;23;20079;-84
2023/08/17 12:19:14;;;;;;;3.70;2.10;;;20.70;91.60;;;;;;6166277;23;20021;-84
2023/08/17 12:21:42;;;;;;;4.20;2.25;;;20.80;91.60;;;;;;6165054;23;20060;-85
2023/08/17 12:24:10;;;;;;;2.63;1.73;;;20.90;91.70;;;;;;6165695;23;20104;-84
2023/08/17 12:26:35;;;;;;;3.45;2.17;;;20.70;91.70;;;;;;6166338;23;20009;-85
2023/08/17 12:29:05;;;;;;;3.30;2.28;;;21.40;91.90;;;;;;6166103;23;19997;-84
2023/08/17 12:31:30;;;;;;;3.28;2.08;;;20.80;91.80;;;;;;6166626;23;20013;-84
2023/08/17 12:33:57;;;;;;;3.75;1.90;;;20.60;91.80;;;;;;6166726;23;20484;-83
2023/08/17 12:36:22;;;;;;;3.78;2.40;;;20.70;91.80;;;;;;6166601;23;20065;-85
2023/08/17 12:38:48;;;;;;;4.32;2.28;;;20.90;91.90;;;;;;6166597;23;20048;-84
2023/08/17 12:41:13;;;;;;;3.53;2.17;;;20.70;91.90;;;;;;6166116;23;20025;-84
2023/08/17 12:43:39;;;;;;;5.15;2.22;;;20.80;91.90;;;;;;6166828;23;20006;-84
2023/08/17 12:46:04;;;;;;;4.63;2.10;;;20.70;91.90;;;;;;6166801;23;20002;-84
2023/08/17 12:48:30;;;;;;;3.33;2.10;;;20.60;91.90;;;;;;6166394;23;20005;-84
2023/08/17 12:50:56;;;;;;;3.75;2.28;;;20.70;92.00;;;;;;6166079;23;20037;-84
2023/08/17 12:53:22;;;;;;;3.17;2.10;;;20.60;92.00;;;;;;6166334;23;20059;-83
2023/08/17 12:55:47;;;;;;;2.95;1.90;;;20.60;92.00;;;;;;6167140;23;20009;-84
2023/08/17 12:58:13;;;;;;;2.97;2.03;;;20.60;92.00;;;;;;6167861;23;20060;-84
2023/08/17 13:00:38;;;;;;;3.85;2.10;;;20.60;92.00;;;;;;6166896;23;20005;-84
2023/08/17 13:03:04;;;;;;;4.10;2.38;;;21.00;92.10;;;;;;6165407;23;20009;-84
2023/08/17 13:05:29;;;;;;;4.45;2.10;;;20.60;92.00;;;;;;6166665;23;20006;-84